Orlando, Florida
Traffic Map
Current Weather Conditions
Orlando, Florida
Few Clouds
Few Clouds
89°
Feels Like: 95°
Wind Chill: 89° Ceiling: Unl
Heat Index: 95° Visibility: 10mi
Dew Point: 71° Wind: 7mph
Humidity: 55% Direction: 320° (NW)
Pressure: 30.08in Gusts: 0mph
Raw Report DataKORL 291553Z 32006KT 10SM FEW038 32/22 A3008 RMK AO2 SLP189 T03170217
Traffic Incident Summary
Active as of:
Severity:
Category:
InformationThere was an issue retrieving the traffic information for this location. Please try a different location or try again shortly.
Advertisements
Track Severe Weather on mobile